createdAt,value
2018-03-06T00:02:04.243Z,48.70
2018-03-06T00:04:31.847Z,44.30
2018-03-06T00:06:59.438Z,48.53
2018-03-06T00:09:27.055Z,46.70
2018-03-06T00:11:54.715Z,46.65
2018-03-06T00:14:22.350Z,44.58
2018-03-06T00:16:49.980Z,47.17
2018-03-06T00:19:17.612Z,46.95
2018-03-06T00:21:45.248Z,45.58
2018-03-06T00:24:13.602Z,51.55
2018-03-06T00:26:41.280Z,53.58
2018-03-06T00:29:08.878Z,51.63
2018-03-06T00:31:36.476Z,53.03
2018-03-06T00:34:04.074Z,50.83
2018-03-06T00:36:32.450Z,51.20
2018-03-06T00:39:00.800Z,51.10
2018-03-06T00:41:28.455Z,51.22
2018-03-06T00:43:56.038Z,48.85
2018-03-06T00:46:23.620Z,50.08
2018-03-06T00:48:51.263Z,49.53
2018-03-06T00:51:18.876Z,53.13
2018-03-06T00:53:46.509Z,51.80
2018-03-06T00:56:14.165Z,53.72
2018-03-06T00:58:41.807Z,53.08
2018-03-06T01:01:09.458Z,50.95
2018-03-06T01:03:37.103Z,51.95
2018-03-06T01:06:04.700Z,54.65
2018-03-06T01:08:33.126Z,55.63
2018-03-06T01:11:00.696Z,51.35
2018-03-06T01:13:28.353Z,50.38
2018-03-06T01:15:55.980Z,50.05
2018-03-06T01:18:23.562Z,52.17
2018-03-06T01:20:51.247Z,51.83
2018-03-06T01:23:18.862Z,55.15
2018-03-06T01:25:46.508Z,56.05
2018-03-06T01:28:14.112Z,52.22
2018-03-06T01:30:41.746Z,56.25
2018-03-06T01:33:09.346Z,57.13
2018-03-06T01:35:37.020Z,53.03
2018-03-06T01:38:04.602Z,54.35
2018-03-06T01:40:32.966Z,53.53
2018-03-06T01:43:01.355Z,58.10
2018-03-06T01:45:29.744Z,53.70
2018-03-06T01:47:58.135Z,59.58
2018-03-06T01:50:25.780Z,61.13
2018-03-06T01:52:54.178Z,64.00
2018-03-06T01:55:22.607Z,60.22
2018-03-06T01:57:50.215Z,62.13
2018-03-06T02:00:17.814Z,61.95
2018-03-06T02:02:45.468Z,65.45
2018-03-06T02:05:13.106Z,63.47
2018-03-06T02:07:40.727Z,67.65
2018-03-06T02:10:08.371Z,62.97
2018-03-06T02:12:36.007Z,63.38
2018-03-06T02:15:03.596Z,65.87
2018-03-06T02:17:31.206Z,62.70
2018-03-06T02:19:58.794Z,66.28
2018-03-06T02:31:24.362Z,66.05
2018-03-06T02:33:52.062Z,71.37
2018-03-06T02:36:20.459Z,64.20
2018-03-06T02:38:48.915Z,75.90
2018-03-06T02:41:16.510Z,75.70
2018-03-06T02:43:44.127Z,75.37
2018-03-06T02:46:11.755Z,77.03
2018-03-06T02:48:39.359Z,76.10
2018-03-06T02:51:06.991Z,69.97
2018-03-06T02:53:34.658Z,72.40
2018-03-06T02:56:02.301Z,85.40
2018-03-06T02:58:29.905Z,82.93
2018-03-06T03:00:57.552Z,84.47
2018-03-06T03:03:25.152Z,82.28
2018-03-06T03:05:52.784Z,82.15
2018-03-06T03:08:20.383Z,79.32
2018-03-06T03:10:47.970Z,83.25
2018-03-06T03:13:15.575Z,84.62
2018-03-06T03:15:43.912Z,82.43
2018-03-06T03:18:11.535Z,84.47
2018-03-06T03:20:39.149Z,84.87
2018-03-06T03:23:06.816Z,83.18
2018-03-06T03:25:34.407Z,81.47
2018-03-06T03:28:02.824Z,80.03
2018-03-06T03:30:30.408Z,75.72
2018-03-06T03:32:58.026Z,70.82
2018-03-06T03:35:25.650Z,73.65
2018-03-06T03:37:53.243Z,74.87
2018-03-06T03:40:20.878Z,74.12
2018-03-06T03:42:49.234Z,76.82
2018-03-06T03:45:16.902Z,76.87
2018-03-06T03:47:44.477Z,78.68
2018-03-06T03:50:12.116Z,79.55
2018-03-06T03:52:39.722Z,70.37
2018-03-06T03:55:07.359Z,84.45
2018-03-06T03:57:35.752Z,80.40
2018-03-06T04:00:04.160Z,86.80
2018-03-06T04:02:31.811Z,80.97
2018-03-06T04:04:59.432Z,84.32
2018-03-06T04:07:27.062Z,84.40
2018-03-06T04:09:54.673Z,80.00
2018-03-06T04:12:23.066Z,78.68
2018-03-06T04:14:50.692Z,81.53
2018-03-06T04:17:18.396Z,77.40
2018-03-06T04:19:46.778Z,81.75
2018-03-06T04:22:14.359Z,85.35
2018-03-06T04:24:41.968Z,84.95
2018-03-06T04:27:10.377Z,80.18
2018-03-06T04:29:37.999Z,82.75
2018-03-06T04:32:06.413Z,73.28
2018-03-06T04:34:34.013Z,80.45
2018-03-06T04:37:01.606Z,75.43
2018-03-06T04:39:29.220Z,75.72
2018-03-06T04:41:56.823Z,73.80
2018-03-06T04:44:24.443Z,89.50
2018-03-06T04:46:52.110Z,86.18
2018-03-06T04:49:19.738Z,84.75
2018-03-06T04:51:47.324Z,75.30
2018-03-06T04:54:14.974Z,80.45
2018-03-06T04:56:42.568Z,85.57
2018-03-06T04:59:10.224Z,81.47
2018-03-06T05:01:38.738Z,82.25
2018-03-06T05:04:13.577Z,77.80
2018-03-06T05:06:49.284Z,78.05
2018-03-06T05:09:40.876Z,84.95
2018-03-06T05:12:26.929Z,77.12
2018-03-06T05:15:13.714Z,74.22
2018-03-06T05:17:41.313Z,73.87
2018-03-06T05:20:09.680Z,70.62
2018-03-06T05:22:39.124Z,70.68
2018-03-06T05:25:06.749Z,71.70
2018-03-06T05:27:34.404Z,69.47
2018-03-06T05:30:02.059Z,80.45
2018-03-06T05:32:29.667Z,83.72
2018-03-06T05:34:57.320Z,94.03
2018-03-06T05:37:24.903Z,86.85
2018-03-06T05:39:52.536Z,90.78
2018-03-06T05:42:20.125Z,85.72
2018-03-06T05:44:47.775Z,87.15
2018-03-06T05:47:15.454Z,82.03
2018-03-06T05:49:43.016Z,81.35
2018-03-06T05:52:10.638Z,79.87
2018-03-06T05:54:38.271Z,77.55
2018-03-06T05:57:05.850Z,73.80
2018-03-06T05:59:33.455Z,77.78
2018-03-06T06:02:01.091Z,77.75
2018-03-06T06:04:28.674Z,75.68
2018-03-06T06:06:56.327Z,73.10
2018-03-06T06:09:23.903Z,79.75
2018-03-06T06:12:12.019Z,73.47
2018-03-06T06:17:48.414Z,89.37
2018-03-06T06:20:15.999Z,83.20
2018-03-06T06:22:43.679Z,76.82
2018-03-06T06:25:11.317Z,79.72
2018-03-06T06:33:30.931Z,93.47
2018-03-06T06:42:07.027Z,80.22
2018-03-06T06:44:34.682Z,74.07
2018-03-06T06:47:02.283Z,78.03
2018-03-06T06:49:30.710Z,72.03
2018-03-06T06:51:58.331Z,70.40
2018-03-06T06:54:26.765Z,65.87
2018-03-06T06:56:54.374Z,66.68
2018-03-06T06:59:22.746Z,64.32
2018-03-06T07:01:54.120Z,64.95
2018-03-06T07:04:21.776Z,60.92
2018-03-06T07:06:49.311Z,61.33
2018-03-06T07:09:16.917Z,60.88
2018-03-06T07:11:44.540Z,59.25
2018-03-06T07:14:12.881Z,57.03
2018-03-06T07:16:40.463Z,63.65
2018-03-06T07:19:26.880Z,57.13
2018-03-06T07:21:55.247Z,59.95
2018-03-06T07:24:22.819Z,57.78
2018-03-06T07:26:51.227Z,58.50
2018-03-06T07:29:18.875Z,61.37
2018-03-06T07:31:50.572Z,63.00
2018-03-06T07:34:18.158Z,66.87
2018-03-06T07:36:45.734Z,65.35
2018-03-06T07:39:14.124Z,64.90
2018-03-06T07:41:41.727Z,62.62
2018-03-06T07:44:09.331Z,57.65
2018-03-06T07:46:37.707Z,58.65
2018-03-06T07:51:51.905Z,59.53
2018-03-06T07:54:19.507Z,58.45
2018-03-06T07:56:47.155Z,66.85
2018-03-06T07:59:14.757Z,64.53
2018-03-06T08:01:43.135Z,67.65
2018-03-06T08:04:11.491Z,64.22
2018-03-06T08:06:39.118Z,65.25
2018-03-06T08:09:06.723Z,65.80
2018-03-06T08:11:34.308Z,63.25
2018-03-06T08:16:55.135Z,62.58
2018-03-06T08:19:22.766Z,61.13
2018-03-06T08:21:50.353Z,67.83
2018-03-06T08:24:17.979Z,62.03
2018-03-06T08:26:45.569Z,62.30
2018-03-06T08:29:13.162Z,61.80
2018-03-06T08:31:40.744Z,59.30
2018-03-06T08:34:08.351Z,57.50
2018-03-06T08:36:36.706Z,57.60
2018-03-06T08:39:04.332Z,59.20
2018-03-06T08:41:31.927Z,57.90
2018-03-06T08:44:01.500Z,58.07
2018-03-06T08:46:29.095Z,50.63
2018-03-06T08:48:56.705Z,51.20
2018-03-06T08:51:24.363Z,51.13
2018-03-06T08:53:58.395Z,50.40
2018-03-06T08:56:25.969Z,52.17
2018-03-06T08:59:05.248Z,51.67
2018-03-06T09:01:34.871Z,52.83
2018-03-06T09:04:03.191Z,56.03
2018-03-06T09:06:30.838Z,53.57
2018-03-06T09:08:58.414Z,55.47
2018-03-06T09:11:26.058Z,55.30
2018-03-06T09:13:53.625Z,55.03
2018-03-06T09:16:27.209Z,56.73
2018-03-06T09:18:54.832Z,56.50
2018-03-06T09:21:22.457Z,54.20
2018-03-06T09:23:50.100Z,56.63
2018-03-06T09:26:17.666Z,56.33
2018-03-06T09:28:45.313Z,57.90
2018-03-06T09:31:12.946Z,56.00
2018-03-06T09:33:41.519Z,54.30
2018-03-06T09:36:09.120Z,52.50
2018-03-06T09:38:36.767Z,54.37
2018-03-06T09:41:04.387Z,54.50
2018-03-06T09:49:40.470Z,50.37
2018-03-06T09:52:08.501Z,50.27
2018-03-06T09:54:36.082Z,52.87
2018-03-06T09:57:03.685Z,52.77
2018-03-06T09:59:32.072Z,50.73
2018-03-06T10:01:59.703Z,47.97
2018-03-06T10:10:18.409Z,45.40
2018-03-06T10:12:46.761Z,54.60
2018-03-06T10:15:14.410Z,50.83
2018-03-06T10:17:42.030Z,50.57
2018-03-06T10:20:09.593Z,47.27
2018-03-06T10:22:37.168Z,49.10
2018-03-06T10:25:04.726Z,50.30
2018-03-06T10:27:32.305Z,44.60
2018-03-06T10:29:59.945Z,49.43
2018-03-06T10:32:27.547Z,48.33
2018-03-06T10:34:55.135Z,45.20
2018-03-06T10:37:22.738Z,42.83
2018-03-06T10:39:50.388Z,46.40
2018-03-06T10:42:18.014Z,42.20
2018-03-06T10:44:46.370Z,39.77
2018-03-06T10:47:14.036Z,40.87
2018-03-06T10:49:41.626Z,39.87
2018-03-06T10:52:10.213Z,38.70
2018-03-06T11:00:33.446Z,37.13
2018-03-06T11:03:01.036Z,36.13
2018-03-06T11:05:28.730Z,35.37
2018-03-06T11:07:56.383Z,34.83
2018-03-06T11:10:23.938Z,35.97
2018-03-06T11:12:52.303Z,35.60
2018-03-06T11:15:19.900Z,33.03
2018-03-06T11:17:47.520Z,32.13
2018-03-06T11:20:15.167Z,32.20
2018-03-06T11:22:57.526Z,34.17
2018-03-06T11:25:25.115Z,33.40
2018-03-06T11:27:52.715Z,34.97
2018-03-06T11:30:21.030Z,34.13
2018-03-06T11:32:56.962Z,35.03
2018-03-06T11:35:26.577Z,33.37
2018-03-06T11:37:54.184Z,33.30
2018-03-06T11:40:21.823Z,33.57
2018-03-06T11:42:49.429Z,33.57
2018-03-06T11:45:17.054Z,34.40
2018-03-06T11:47:44.675Z,33.33
2018-03-06T11:50:12.250Z,33.90
2018-03-06T11:52:39.871Z,33.50
2018-03-06T11:55:07.485Z,30.80
2018-03-06T11:57:35.874Z,31.17
2018-03-06T12:00:03.476Z,31.97
2018-03-06T12:02:31.090Z,31.63
2018-03-06T12:04:59.506Z,30.70
2018-03-06T12:07:27.093Z,33.00
2018-03-06T12:09:54.719Z,35.40
2018-03-06T12:12:37.954Z,33.77
2018-03-06T12:15:05.551Z,38.73
2018-03-06T12:17:33.163Z,33.43
2018-03-06T12:20:00.805Z,34.23
2018-03-06T12:22:28.439Z,34.53
2018-03-06T12:24:56.075Z,31.90
2018-03-06T12:27:23.667Z,32.17
2018-03-06T12:29:52.007Z,31.00
2018-03-06T12:32:19.555Z,31.73
2018-03-06T12:34:47.122Z,32.70
2018-03-06T12:37:14.731Z,30.60
2018-03-06T12:39:43.105Z,32.87
2018-03-06T12:42:11.527Z,35.13
2018-03-06T12:47:51.206Z,32.03
2018-03-06T12:50:18.845Z,32.20
2018-03-06T12:52:46.449Z,31.80
2018-03-06T12:55:14.055Z,36.33
2018-03-06T13:00:55.114Z,30.43
2018-03-06T13:03:22.723Z,30.63
2018-03-06T13:05:50.276Z,31.50
2018-03-06T13:08:17.879Z,30.80
2018-03-06T13:10:46.306Z,32.33
2018-03-06T13:13:13.907Z,30.37
2018-03-06T13:15:41.522Z,30.20
2018-03-06T13:21:13.939Z,31.70
2018-03-06T13:23:43.539Z,30.30
2018-03-06T13:29:05.056Z,31.17
2018-03-06T13:37:36.235Z,29.77
2018-03-06T13:42:58.315Z,29.37
2018-03-06T13:45:25.895Z,29.83
2018-03-06T13:47:53.510Z,29.80
2018-03-06T13:50:21.074Z,29.10
2018-03-06T13:52:48.639Z,29.57
2018-03-06T13:55:16.230Z,28.63
2018-03-06T13:57:43.851Z,29.60
2018-03-06T14:00:11.410Z,31.43
2018-03-06T14:02:39.034Z,28.97
2018-03-06T14:05:07.447Z,28.83
2018-03-06T14:07:35.043Z,29.27
2018-03-06T14:10:02.654Z,29.50
2018-03-06T14:12:30.995Z,29.77
2018-03-06T14:14:58.601Z,27.50
2018-03-06T14:17:26.928Z,28.17
2018-03-06T14:19:54.510Z,27.50
2018-03-06T14:22:22.131Z,29.60
2018-03-06T14:28:04.531Z,31.60
2018-03-06T14:30:32.172Z,29.13
2018-03-06T14:33:00.543Z,28.67
2018-03-06T14:35:28.133Z,30.57
2018-03-06T14:37:55.737Z,28.40
2018-03-06T14:40:23.298Z,28.50
2018-03-06T14:42:50.935Z,28.90
2018-03-06T14:45:18.556Z,29.43
2018-03-06T14:47:46.991Z,33.10
2018-03-06T14:50:14.644Z,29.63
2018-03-06T14:52:42.294Z,43.20
2018-03-06T14:55:09.920Z,32.07
2018-03-06T15:00:33.355Z,26.10
2018-03-06T15:03:00.998Z,25.93
2018-03-06T15:05:28.610Z,26.07
2018-03-06T15:13:55.454Z,26.03
2018-03-06T15:16:23.091Z,25.90
2018-03-06T15:18:50.728Z,26.90
2018-03-06T15:21:19.091Z,30.87
2018-03-06T15:23:51.345Z,26.37
2018-03-06T15:26:18.923Z,25.63
2018-03-06T15:28:46.562Z,24.10
2018-03-06T15:31:14.171Z,21.30
2018-03-06T15:33:41.763Z,24.80
2018-03-06T15:36:09.415Z,24.67
2018-03-06T15:38:37.021Z,24.07
2018-03-06T15:41:04.663Z,24.50
2018-03-06T15:43:32.323Z,22.80
2018-03-06T15:45:59.985Z,21.00
2018-03-06T15:48:27.673Z,25.30
2018-03-06T15:50:56.064Z,25.40
2018-03-06T15:53:28.456Z,26.77
2018-03-06T15:55:56.818Z,23.40
2018-03-06T15:58:24.446Z,30.50
2018-03-06T16:00:58.835Z,25.83
2018-03-06T16:03:26.452Z,26.47
2018-03-06T16:05:58.503Z,25.87
2018-03-06T16:17:11.093Z,22.97
2018-03-06T16:19:38.710Z,22.90
2018-03-06T16:22:06.367Z,24.30
2018-03-06T16:24:34.009Z,23.47
2018-03-06T16:30:00.414Z,21.80
2018-03-06T16:32:28.828Z,21.77
2018-03-06T16:34:56.473Z,21.97
2018-03-06T16:40:24.423Z,19.80
2018-03-06T16:51:50.473Z,17.07
2018-03-06T16:54:18.112Z,16.77
2018-03-06T16:56:45.743Z,21.87
2018-03-06T16:59:14.152Z,24.37
2018-03-06T17:01:41.757Z,31.00
2018-03-06T17:04:09.412Z,34.97
2018-03-06T17:06:37.040Z,25.00
2018-03-06T17:09:04.661Z,25.37
2018-03-06T17:11:32.306Z,23.87
2018-03-06T17:13:59.980Z,27.07
2018-03-06T17:16:27.572Z,26.60
2018-03-06T17:18:55.250Z,23.73
2018-03-06T17:21:22.834Z,25.53
2018-03-06T17:23:50.491Z,25.90
2018-03-06T17:26:18.139Z,26.90
2018-03-06T17:28:45.748Z,29.40
2018-03-06T17:31:13.385Z,30.83
2018-03-06T17:33:41.016Z,29.47
2018-03-06T17:36:08.653Z,29.27
2018-03-06T17:38:36.295Z,24.73
2018-03-06T17:41:04.719Z,23.50
2018-03-06T17:43:46.610Z,24.07
2018-03-06T17:46:24.640Z,27.10
2018-03-06T17:48:52.251Z,27.20
2018-03-06T17:51:20.668Z,31.27
2018-03-06T17:53:48.281Z,25.40
2018-03-06T17:56:16.677Z,24.70
2018-03-06T17:58:45.080Z,28.90
2018-03-06T18:01:12.718Z,29.63
2018-03-06T18:03:40.348Z,31.30
2018-03-06T18:06:07.987Z,25.50
2018-03-06T18:08:35.618Z,26.37
2018-03-06T18:11:03.237Z,29.97
2018-03-06T18:13:31.635Z,26.60
2018-03-06T18:15:59.265Z,27.95
2018-03-06T18:18:26.920Z,26.92
2018-03-06T18:20:54.536Z,26.98
2018-03-06T18:23:22.944Z,28.42
2018-03-06T18:25:50.629Z,29.83
2018-03-06T18:28:18.270Z,30.75
2018-03-06T18:30:45.952Z,30.45
2018-03-06T18:33:28.209Z,39.95
2018-03-06T18:35:55.830Z,35.88
2018-03-06T18:38:24.275Z,34.08
2018-03-06T18:40:51.900Z,35.67
2018-03-06T18:43:19.540Z,34.53
2018-03-06T18:45:47.941Z,32.65
2018-03-06T18:48:15.580Z,31.62
2018-03-06T18:50:55.812Z,33.60
2018-03-06T18:53:23.488Z,34.58
2018-03-06T18:55:51.909Z,37.10
2018-03-06T18:58:19.553Z,32.45
2018-03-06T19:04:12.529Z,28.23
2018-03-06T19:07:13.687Z,25.15
2018-03-06T19:09:41.292Z,24.10
2018-03-06T19:12:10.884Z,24.25
2018-03-06T19:14:38.468Z,23.38
2018-03-06T19:23:01.436Z,19.98
2018-03-06T19:25:29.031Z,19.45
2018-03-06T19:27:57.369Z,19.70
2018-03-06T19:30:24.961Z,19.33
2018-03-06T19:32:53.407Z,19.65
2018-03-06T19:35:20.948Z,23.65
2018-03-06T19:37:48.549Z,23.62
2018-03-06T19:40:16.068Z,23.45
2018-03-06T19:42:43.653Z,22.70
2018-03-06T19:45:11.197Z,21.40
2018-03-06T19:47:38.786Z,21.67
2018-03-06T19:50:06.385Z,20.55
2018-03-06T19:52:34.005Z,21.60
2018-03-06T19:55:01.600Z,21.75
2018-03-06T19:57:29.231Z,21.35
2018-03-06T19:59:56.843Z,22.50
2018-03-06T20:02:24.469Z,21.83
2018-03-06T20:04:52.851Z,21.73
2018-03-06T20:07:21.249Z,24.05
2018-03-06T20:09:48.964Z,23.15
2018-03-06T20:12:16.572Z,25.90
2018-03-06T20:14:49.788Z,22.80
2018-03-06T20:20:34.743Z,23.73
2018-03-06T20:23:03.076Z,25.83
2018-03-06T20:25:36.266Z,28.70
2018-03-06T20:28:03.897Z,23.73
2018-03-06T20:30:37.127Z,23.15
2018-03-06T20:33:10.446Z,22.62
2018-03-06T20:35:38.835Z,21.80
2018-03-06T20:38:07.204Z,23.70
2018-03-06T20:40:35.572Z,25.42
2018-03-06T20:43:03.207Z,22.25
2018-03-06T20:45:36.432Z,22.30
2018-03-06T20:48:04.760Z,21.90
2018-03-06T20:50:32.334Z,22.27
2018-03-06T20:53:05.698Z,20.62
2018-03-06T20:55:33.304Z,23.15
2018-03-06T20:58:00.926Z,23.45
2018-03-06T21:00:28.575Z,22.83
2018-03-06T21:02:56.190Z,22.65
2018-03-06T21:05:23.836Z,23.15
2018-03-06T21:07:51.463Z,24.23
2018-03-06T21:10:19.129Z,24.42
2018-03-06T21:12:46.793Z,24.08
2018-03-06T21:15:14.412Z,24.40
2018-03-06T21:17:42.008Z,24.50
2018-03-06T21:20:09.632Z,24.85
2018-03-06T21:22:37.264Z,23.50
2018-03-06T21:25:04.863Z,24.58
2018-03-06T21:27:33.206Z,24.12
2018-03-06T21:30:00.817Z,24.12
2018-03-06T21:32:28.447Z,25.12
2018-03-06T21:34:56.040Z,23.38
2018-03-06T21:37:23.624Z,25.23
2018-03-06T21:39:51.199Z,24.90
2018-03-06T21:42:18.820Z,23.92
2018-03-06T21:44:46.449Z,23.73
2018-03-06T21:47:14.051Z,24.10
2018-03-06T21:49:41.614Z,22.40
2018-03-06T21:52:09.187Z,22.83
2018-03-06T21:54:36.794Z,22.45
2018-03-06T21:57:04.427Z,21.75
2018-03-06T21:59:32.065Z,21.27
2018-03-06T22:01:59.725Z,21.20
2018-03-06T22:04:27.353Z,20.10
2018-03-06T22:06:55.139Z,18.50
2018-03-06T22:09:22.761Z,20.62
2018-03-06T22:11:50.374Z,19.10
2018-03-06T22:14:17.993Z,17.70
2018-03-06T22:16:46.393Z,16.83
2018-03-06T22:19:14.032Z,17.45
2018-03-06T22:21:42.518Z,24.08
2018-03-06T22:24:10.870Z,17.20
2018-03-06T22:26:38.461Z,19.70
2018-03-06T22:29:06.081Z,19.83
2018-03-06T22:31:33.728Z,16.55
2018-03-06T22:34:01.366Z,16.62
2018-03-06T22:36:37.135Z,17.10
2018-03-06T22:39:04.758Z,16.48
2018-03-06T22:41:32.367Z,16.33
2018-03-06T22:43:59.944Z,15.55
2018-03-06T22:46:27.528Z,15.25
2018-03-06T22:48:55.905Z,14.77
2018-03-06T22:51:24.284Z,14.90
2018-03-06T22:53:52.637Z,13.48
2018-03-06T22:56:20.271Z,14.13
2018-03-06T22:58:47.840Z,13.50
2018-03-06T23:01:15.444Z,27.10
2018-03-06T23:03:43.824Z,13.75
2018-03-06T23:06:12.230Z,12.00
2018-03-06T23:08:39.850Z,10.93
2018-03-06T23:11:07.460Z,12.07
2018-03-06T23:13:35.047Z,11.10
2018-03-06T23:16:02.651Z,10.23
2018-03-06T23:18:30.230Z,10.73
2018-03-06T23:20:57.848Z,10.25
2018-03-06T23:23:25.434Z,9.40
2018-03-06T23:25:53.036Z,10.10
2018-03-06T23:28:20.624Z,8.90
2018-03-06T23:30:48.253Z,8.63
2018-03-06T23:33:15.892Z,9.95
2018-03-06T23:35:43.496Z,9.38
2018-03-06T23:38:11.090Z,10.15
2018-03-06T23:40:39.498Z,10.23
2018-03-06T23:43:07.165Z,10.35
2018-03-06T23:45:34.747Z,10.75
2018-03-06T23:48:02.338Z,11.57
2018-03-06T23:50:30.679Z,12.52
2018-03-06T23:52:58.292Z,10.88
2018-03-06T23:55:26.626Z,11.45
2018-03-06T23:57:54.252Z,11.88
